sensor_id;sensor_type;location;lat;lon;timestamp;temperature;humidity
14053;DHT22;7101;51.600;7.310;2023-11-18T00:01:46;0.00;99.90
14053;DHT22;7101;51.600;7.310;2023-11-18T00:04:13;0.00;99.90
14053;DHT22;7101;51.600;7.310;2023-11-18T00:06:43;0.00;99.90
14053;DHT22;7101;51.600;7.310;2023-11-18T00:09:10;0.00;99.90
14053;DHT22;7101;51.600;7.310;2023-11-18T00:11:40;0.00;99.90
14053;DHT22;7101;51.600;7.310;2023-11-18T00:14:07;-0.10;99.90
14053;DHT22;7101;51.600;7.310;2023-11-18T00:16:36;-0.10;99.90
14053;DHT22;7101;51.600;7.310;2023-11-18T00:19:04;-0.10;99.90
14053;DHT22;7101;51.600;7.310;2023-11-18T00:21:31;-0.10;99.90
14053;DHT22;7101;51.600;7.310;2023-11-18T00:23:59;-0.20;99.90
14053;DHT22;7101;51.600;7.310;2023-11-18T00:26:26;-0.20;99.90
14053;DHT22;7101;51.600;7.310;2023-11-18T00:28:54;-0.20;99.90
14053;DHT22;7101;51.600;7.310;2023-11-18T00:31:21;-0.20;99.90
14053;DHT22;7101;51.600;7.310;2023-11-18T00:33:48;-0.30;99.90
14053;DHT22;7101;51.600;7.310;2023-11-18T00:36:15;-0.20;99.90
14053;DHT22;7101;51.600;7.310;2023-11-18T00:38:43;-0.20;99.90
14053;DHT22;7101;51.600;7.310;2023-11-18T00:41:11;-0.20;99.90
14053;DHT22;7101;51.600;7.310;2023-11-18T00:43:38;-0.20;99.90
14053;DHT22;7101;51.600;7.310;2023-11-18T00:46:05;-0.20;99.90
14053;DHT22;7101;51.600;7.310;2023-11-18T00:48:32;-0.20;99.90
14053;DHT22;7101;51.600;7.310;2023-11-18T00:50:59;-0.20;99.90
14053;DHT22;7101;51.600;7.310;2023-11-18T00:53:26;-0.20;99.90
14053;DHT22;7101;51.600;7.310;2023-11-18T00:55:53;-0.20;99.90
14053;DHT22;7101;51.600;7.310;2023-11-18T00:58:22;-0.20;99.90
14053;DHT22;7101;51.600;7.310;2023-11-18T01:00:49;-0.20;99.90
14053;DHT22;7101;51.600;7.310;2023-11-18T01:03:19;-0.20;99.90
14053;DHT22;7101;51.600;7.310;2023-11-18T01:05:47;-0.20;99.90
14053;DHT22;7101;51.600;7.310;2023-11-18T01:08:14;-0.20;99.90
14053;DHT22;7101;51.600;7.310;2023-11-18T01:10:56;-0.10;99.90
14053;DHT22;7101;51.600;7.310;2023-11-18T01:13:27;-0.10;99.90
14053;DHT22;7101;51.600;7.310;2023-11-18T01:15:59;0.00;99.90
14053;DHT22;7101;51.600;7.310;2023-11-18T01:18:33;-0.10;99.90
14053;DHT22;7101;51.600;7.310;2023-11-18T01:21:03;-0.10;99.90
14053;DHT22;7101;51.600;7.310;2023-11-18T01:23:33;-0.10;99.90
14053;DHT22;7101;51.600;7.310;2023-11-18T01:26:05;-0.10;99.90
14053;DHT22;7101;51.600;7.310;2023-11-18T01:28:34;-0.10;99.90
14053;DHT22;7101;51.600;7.310;2023-11-18T01:31:04;-0.10;99.90
14053;DHT22;7101;51.600;7.310;2023-11-18T01:33:33;-0.10;99.90
14053;DHT22;7101;51.600;7.310;2023-11-18T01:36:04;-0.10;99.90
14053;DHT22;7101;51.600;7.310;2023-11-18T01:38:31;0.00;99.90
14053;DHT22;7101;51.600;7.310;2023-11-18T01:40:58;0.10;99.90
14053;DHT22;7101;51.600;7.310;2023-11-18T01:43:26;0.10;99.90
14053;DHT22;7101;51.600;7.310;2023-11-18T01:45:54;0.00;99.90
14053;DHT22;7101;51.600;7.310;2023-11-18T01:48:22;0.00;99.90
14053;DHT22;7101;51.600;7.310;2023-11-18T01:50:53;0.00;99.90
14053;DHT22;7101;51.600;7.310;2023-11-18T01:53:21;0.00;99.90
14053;DHT22;7101;51.600;7.310;2023-11-18T01:55:50;0.00;99.90
14053;DHT22;7101;51.600;7.310;2023-11-18T01:58:17;0.00;99.90
14053;DHT22;7101;51.600;7.310;2023-11-18T02:00:46;0.00;99.90
14053;DHT22;7101;51.600;7.310;2023-11-18T02:03:14;0.00;99.90
14053;DHT22;7101;51.600;7.310;2023-11-18T02:05:43;0.00;99.90
14053;DHT22;7101;51.600;7.310;2023-11-18T02:08:10;0.00;99.90
14053;DHT22;7101;51.600;7.310;2023-11-18T02:10:46;0.00;99.90
14053;DHT22;7101;51.600;7.310;2023-11-18T02:13:22;0.00;99.90
14053;DHT22;7101;51.600;7.310;2023-11-18T02:15:53;-0.10;99.90
14053;DHT22;7101;51.600;7.310;2023-11-18T02:18:24;-0.10;99.90
14053;DHT22;7101;51.600;7.310;2023-11-18T02:20:53;-0.10;99.90
14053;DHT22;7101;51.600;7.310;2023-11-18T02:23:21;-0.20;99.90
14053;DHT22;7101;51.600;7.310;2023-11-18T02:25:50;-0.10;99.90
14053;DHT22;7101;51.600;7.310;2023-11-18T02:28:17;-0.10;99.90
14053;DHT22;7101;51.600;7.310;2023-11-18T02:30:45;-0.10;99.90
14053;DHT22;7101;51.600;7.310;2023-11-18T02:33:18;-0.10;99.90
14053;DHT22;7101;51.600;7.310;2023-11-18T02:35:51;-0.10;99.90
14053;DHT22;7101;51.600;7.310;2023-11-18T02:38:22;0.00;99.90
14053;DHT22;7101;51.600;7.310;2023-11-18T02:40:53;0.00;99.90
14053;DHT22;7101;51.600;7.310;2023-11-18T02:43:23;0.10;99.90
14053;DHT22;7101;51.600;7.310;2023-11-18T02:45:51;0.10;99.90
14053;DHT22;7101;51.600;7.310;2023-11-18T02:48:20;0.20;99.90
14053;DHT22;7101;51.600;7.310;2023-11-18T02:50:47;0.20;99.90
14053;DHT22;7101;51.600;7.310;2023-11-18T02:53:14;0.30;99.90
14053;DHT22;7101;51.600;7.310;2023-11-18T02:55:40;0.40;99.90
14053;DHT22;7101;51.600;7.310;2023-11-18T02:58:09;0.40;99.90
14053;DHT22;7101;51.600;7.310;2023-11-18T03:00:36;0.50;99.90
14053;DHT22;7101;51.600;7.310;2023-11-18T03:03:04;0.50;99.90
14053;DHT22;7101;51.600;7.310;2023-11-18T03:05:31;0.50;99.90
14053;DHT22;7101;51.600;7.310;2023-11-18T03:07:58;0.50;99.90
14053;DHT22;7101;51.600;7.310;2023-11-18T03:10:25;0.50;99.90
14053;DHT22;7101;51.600;7.310;2023-11-18T03:12:52;0.60;99.90
14053;DHT22;7101;51.600;7.310;2023-11-18T03:15:21;0.60;99.90
14053;DHT22;7101;51.600;7.310;2023-11-18T03:17:49;0.60;99.90
14053;DHT22;7101;51.600;7.310;2023-11-18T03:20:19;0.70;99.90
14053;DHT22;7101;51.600;7.310;2023-11-18T03:22:46;0.70;99.90
14053;DHT22;7101;51.600;7.310;2023-11-18T03:25:14;0.60;99.90
14053;DHT22;7101;51.600;7.310;2023-11-18T03:27:41;0.60;99.90
14053;DHT22;7101;51.600;7.310;2023-11-18T03:30:09;0.60;99.90
14053;DHT22;7101;51.600;7.310;2023-11-18T03:32:38;0.60;99.90
14053;DHT22;7101;51.600;7.310;2023-11-18T03:35:11;0.60;99.90
14053;DHT22;7101;51.600;7.310;2023-11-18T03:37:39;0.60;99.90
14053;DHT22;7101;51.600;7.310;2023-11-18T03:40:08;0.50;99.90
14053;DHT22;7101;51.600;7.310;2023-11-18T03:42:35;0.50;99.90
14053;DHT22;7101;51.600;7.310;2023-11-18T03:45:03;0.40;99.90
14053;DHT22;7101;51.600;7.310;2023-11-18T03:47:31;0.40;99.90
14053;DHT22;7101;51.600;7.310;2023-11-18T03:50:00;0.30;99.90
14053;DHT22;7101;51.600;7.310;2023-11-18T03:52:33;0.30;99.90
14053;DHT22;7101;51.600;7.310;2023-11-18T03:55:02;0.30;99.90
14053;DHT22;7101;51.600;7.310;2023-11-18T03:57:30;0.40;99.90
14053;DHT22;7101;51.600;7.310;2023-11-18T03:59:56;0.40;99.90
14053;DHT22;7101;51.600;7.310;2023-11-18T04:02:23;0.50;99.90
14053;DHT22;7101;51.600;7.310;2023-11-18T04:04:51;0.70;99.90
14053;DHT22;7101;51.600;7.310;2023-11-18T04:07:20;0.70;99.90
14053;DHT22;7101;51.600;7.310;2023-11-18T04:09:50;0.70;99.90
14053;DHT22;7101;51.600;7.310;2023-11-18T04:12:20;0.90;99.90
14053;DHT22;7101;51.600;7.310;2023-11-18T04:14:49;0.90;99.90
14053;DHT22;7101;51.600;7.310;2023-11-18T04:17:16;1.00;99.90
14053;DHT22;7101;51.600;7.310;2023-11-18T04:19:43;1.00;99.90
14053;DHT22;7101;51.600;7.310;2023-11-18T04:22:11;1.10;99.90
14053;DHT22;7101;51.600;7.310;2023-11-18T04:24:39;1.30;99.90
14053;DHT22;7101;51.600;7.310;2023-11-18T04:27:06;1.20;99.90
14053;DHT22;7101;51.600;7.310;2023-11-18T04:29:34;1.20;99.90
14053;DHT22;7101;51.600;7.310;2023-11-18T04:32:01;1.20;99.90
14053;DHT22;7101;51.600;7.310;2023-11-18T04:34:28;1.20;99.90
14053;DHT22;7101;51.600;7.310;2023-11-18T04:36:55;1.30;99.90
14053;DHT22;7101;51.600;7.310;2023-11-18T04:39:25;1.30;99.90
14053;DHT22;7101;51.600;7.310;2023-11-18T04:41:55;1.30;99.90
14053;DHT22;7101;51.600;7.310;2023-11-18T04:44:22;1.20;99.90
14053;DHT22;7101;51.600;7.310;2023-11-18T04:46:49;1.30;99.90
14053;DHT22;7101;51.600;7.310;2023-11-18T04:49:16;1.20;99.90
14053;DHT22;7101;51.600;7.310;2023-11-18T04:51:44;1.10;99.90
14053;DHT22;7101;51.600;7.310;2023-11-18T04:54:12;1.10;99.90
14053;DHT22;7101;51.600;7.310;2023-11-18T04:56:40;1.00;99.90
14053;DHT22;7101;51.600;7.310;2023-11-18T04:59:09;0.90;99.90
14053;DHT22;7101;51.600;7.310;2023-11-18T05:01:39;0.90;99.90
14053;DHT22;7101;51.600;7.310;2023-11-18T05:04:06;0.90;99.90
14053;DHT22;7101;51.600;7.310;2023-11-18T05:06:33;0.90;99.90
14053;DHT22;7101;51.600;7.310;2023-11-18T05:09:00;1.00;99.90
14053;DHT22;7101;51.600;7.310;2023-11-18T05:11:27;1.00;99.90
14053;DHT22;7101;51.600;7.310;2023-11-18T05:13:54;1.00;99.90
14053;DHT22;7101;51.600;7.310;2023-11-18T05:16:23;1.00;99.90
14053;DHT22;7101;51.600;7.310;2023-11-18T05:18:50;1.00;99.90
14053;DHT22;7101;51.600;7.310;2023-11-18T05:21:17;1.00;99.90
14053;DHT22;7101;51.600;7.310;2023-11-18T05:23:44;1.00;99.90
14053;DHT22;7101;51.600;7.310;2023-11-18T05:26:11;1.00;99.90
14053;DHT22;7101;51.600;7.310;2023-11-18T05:28:37;1.00;99.90
14053;DHT22;7101;51.600;7.310;2023-11-18T05:31:05;1.00;99.90
14053;DHT22;7101;51.600;7.310;2023-11-18T05:33:33;1.20;99.90
14053;DHT22;7101;51.600;7.310;2023-11-18T05:36:00;1.30;99.90
14053;DHT22;7101;51.600;7.310;2023-11-18T05:38:30;1.30;99.90
14053;DHT22;7101;51.600;7.310;2023-11-18T05:41:00;1.30;99.90
14053;DHT22;7101;51.600;7.310;2023-11-18T05:43:30;1.20;99.90
14053;DHT22;7101;51.600;7.310;2023-11-18T05:46:02;1.10;99.90
14053;DHT22;7101;51.600;7.310;2023-11-18T05:48:48;1.20;99.90
14053;DHT22;7101;51.600;7.310;2023-11-18T05:51:19;1.20;99.90
14053;DHT22;7101;51.600;7.310;2023-11-18T05:53:47;1.20;99.90
14053;DHT22;7101;51.600;7.310;2023-11-18T05:56:14;1.20;99.90
14053;DHT22;7101;51.600;7.310;2023-11-18T05:58:43;1.30;99.90
14053;DHT22;7101;51.600;7.310;2023-11-18T06:01:16;1.40;99.90
14053;DHT22;7101;51.600;7.310;2023-11-18T06:03:49;1.50;99.90
14053;DHT22;7101;51.600;7.310;2023-11-18T06:06:19;1.50;99.90
14053;DHT22;7101;51.600;7.310;2023-11-18T06:08:48;1.50;99.90
14053;DHT22;7101;51.600;7.310;2023-11-18T06:11:16;1.60;99.90
14053;DHT22;7101;51.600;7.310;2023-11-18T06:13:45;1.60;99.90
14053;DHT22;7101;51.600;7.310;2023-11-18T06:16:13;1.70;99.90
14053;DHT22;7101;51.600;7.310;2023-11-18T06:18:42;1.70;99.90
14053;DHT22;7101;51.600;7.310;2023-11-18T06:21:12;1.80;99.90
14053;DHT22;7101;51.600;7.310;2023-11-18T06:23:40;1.80;99.90
14053;DHT22;7101;51.600;7.310;2023-11-18T06:26:07;1.70;99.90
14053;DHT22;7101;51.600;7.310;2023-11-18T06:28:36;1.70;99.90
14053;DHT22;7101;51.600;7.310;2023-11-18T06:31:03;1.70;99.90
14053;DHT22;7101;51.600;7.310;2023-11-18T06:33:30;1.80;99.90
14053;DHT22;7101;51.600;7.310;2023-11-18T06:35:57;1.90;99.90
14053;DHT22;7101;51.600;7.310;2023-11-18T06:38:27;1.90;99.90
14053;DHT22;7101;51.600;7.310;2023-11-18T06:40:59;1.90;99.90
14053;DHT22;7101;51.600;7.310;2023-11-18T06:43:29;1.90;99.90
14053;DHT22;7101;51.600;7.310;2023-11-18T06:46:04;1.90;99.90
14053;DHT22;7101;51.600;7.310;2023-11-18T06:48:37;1.90;99.90
14053;DHT22;7101;51.600;7.310;2023-11-18T06:51:06;2.10;99.90
14053;DHT22;7101;51.600;7.310;2023-11-18T06:53:36;2.00;99.90
14053;DHT22;7101;51.600;7.310;2023-11-18T06:56:05;2.00;99.90
14053;DHT22;7101;51.600;7.310;2023-11-18T06:58:32;2.00;99.90
14053;DHT22;7101;51.600;7.310;2023-11-18T07:00:59;2.00;99.90
14053;DHT22;7101;51.600;7.310;2023-11-18T07:03:29;2.10;99.90
14053;DHT22;7101;51.600;7.310;2023-11-18T07:05:55;2.10;99.90
14053;DHT22;7101;51.600;7.310;2023-11-18T07:08:22;2.10;99.90
14053;DHT22;7101;51.600;7.310;2023-11-18T07:10:51;2.10;99.90
14053;DHT22;7101;51.600;7.310;2023-11-18T07:13:18;2.10;99.90
14053;DHT22;7101;51.600;7.310;2023-11-18T07:15:48;2.10;99.90
14053;DHT22;7101;51.600;7.310;2023-11-18T07:18:17;2.10;99.90
14053;DHT22;7101;51.600;7.310;2023-11-18T07:20:47;2.20;99.90
14053;DHT22;7101;51.600;7.310;2023-11-18T07:23:14;2.20;99.90
14053;DHT22;7101;51.600;7.310;2023-11-18T07:25:43;2.20;99.90
14053;DHT22;7101;51.600;7.310;2023-11-18T07:28:11;2.30;99.90
14053;DHT22;7101;51.600;7.310;2023-11-18T07:30:41;2.30;99.90
14053;DHT22;7101;51.600;7.310;2023-11-18T07:33:08;2.40;99.90
14053;DHT22;7101;51.600;7.310;2023-11-18T07:35:35;2.50;99.90
14053;DHT22;7101;51.600;7.310;2023-11-18T07:38:02;2.50;99.90
14053;DHT22;7101;51.600;7.310;2023-11-18T07:40:29;2.60;99.90
14053;DHT22;7101;51.600;7.310;2023-11-18T07:42:59;2.80;99.90
14053;DHT22;7101;51.600;7.310;2023-11-18T07:45:34;2.80;99.90
14053;DHT22;7101;51.600;7.310;2023-11-18T07:48:03;2.90;99.90
14053;DHT22;7101;51.600;7.310;2023-11-18T07:50:32;3.10;99.90
14053;DHT22;7101;51.600;7.310;2023-11-18T07:52:59;3.20;99.90
14053;DHT22;7101;51.600;7.310;2023-11-18T07:55:26;3.30;99.90
14053;DHT22;7101;51.600;7.310;2023-11-18T07:57:54;3.50;99.90
14053;DHT22;7101;51.600;7.310;2023-11-18T08:00:21;3.60;99.90
14053;DHT22;7101;51.600;7.310;2023-11-18T08:02:50;3.70;99.90
14053;DHT22;7101;51.600;7.310;2023-11-18T08:05:19;3.80;99.90
14053;DHT22;7101;51.600;7.310;2023-11-18T08:07:48;3.90;99.90
14053;DHT22;7101;51.600;7.310;2023-11-18T08:10:15;3.90;99.90
14053;DHT22;7101;51.600;7.310;2023-11-18T08:12:44;4.00;99.90
14053;DHT22;7101;51.600;7.310;2023-11-18T08:15:13;4.10;99.90
14053;DHT22;7101;51.600;7.310;2023-11-18T08:17:40;4.10;99.90
14053;DHT22;7101;51.600;7.310;2023-11-18T08:20:08;4.20;99.90
14053;DHT22;7101;51.600;7.310;2023-11-18T08:22:40;4.20;99.90
14053;DHT22;7101;51.600;7.310;2023-11-18T08:25:07;4.30;99.90
14053;DHT22;7101;51.600;7.310;2023-11-18T08:27:35;4.40;99.90
14053;DHT22;7101;51.600;7.310;2023-11-18T08:30:02;4.40;99.90
14053;DHT22;7101;51.600;7.310;2023-11-18T08:32:31;4.50;99.90
14053;DHT22;7101;51.600;7.310;2023-11-18T08:34:58;4.60;99.90
14053;DHT22;7101;51.600;7.310;2023-11-18T08:37:26;4.70;99.90
14053;DHT22;7101;51.600;7.310;2023-11-18T08:39:53;4.80;99.90
14053;DHT22;7101;51.600;7.310;2023-11-18T08:42:20;4.90;99.90
14053;DHT22;7101;51.600;7.310;2023-11-18T08:44:47;4.90;99.90
14053;DHT22;7101;51.600;7.310;2023-11-18T08:47:14;5.00;99.90
14053;DHT22;7101;51.600;7.310;2023-11-18T08:49:42;5.10;99.90
14053;DHT22;7101;51.600;7.310;2023-11-18T08:52:11;5.20;99.90
14053;DHT22;7101;51.600;7.310;2023-11-18T08:54:40;5.10;99.90
14053;DHT22;7101;51.600;7.310;2023-11-18T08:57:26;5.10;99.90
14053;DHT22;7101;51.600;7.310;2023-11-18T09:00:00;5.00;99.90
14053;DHT22;7101;51.600;7.310;2023-11-18T09:02:33;5.00;99.90
14053;DHT22;7101;51.600;7.310;2023-11-18T09:05:03;5.00;99.90
14053;DHT22;7101;51.600;7.310;2023-11-18T09:07:38;5.10;99.90
14053;DHT22;7101;51.600;7.310;2023-11-18T09:10:07;5.10;99.90
14053;DHT22;7101;51.600;7.310;2023-11-18T09:12:34;5.20;99.90
14053;DHT22;7101;51.600;7.310;2023-11-18T09:15:01;5.20;99.90
14053;DHT22;7101;51.600;7.310;2023-11-18T09:17:31;5.20;99.90
14053;DHT22;7101;51.600;7.310;2023-11-18T09:19:59;5.20;99.90
14053;DHT22;7101;51.600;7.310;2023-11-18T09:22:26;5.20;99.90
14053;DHT22;7101;51.600;7.310;2023-11-18T09:24:53;5.30;99.90
14053;DHT22;7101;51.600;7.310;2023-11-18T09:27:22;5.30;99.90
14053;DHT22;7101;51.600;7.310;2023-11-18T09:29:49;5.30;99.90
14053;DHT22;7101;51.600;7.310;2023-11-18T09:32:16;5.40;99.90
14053;DHT22;7101;51.600;7.310;2023-11-18T09:34:44;5.40;99.90
14053;DHT22;7101;51.600;7.310;2023-11-18T09:37:12;5.50;99.90
14053;DHT22;7101;51.600;7.310;2023-11-18T09:39:38;5.50;99.90
14053;DHT22;7101;51.600;7.310;2023-11-18T09:42:12;5.60;99.90
14053;DHT22;7101;51.600;7.310;2023-11-18T09:44:46;5.60;99.90
14053;DHT22;7101;51.600;7.310;2023-11-18T09:47:15;5.70;99.90
14053;DHT22;7101;51.600;7.310;2023-11-18T09:49:52;5.80;99.90
14053;DHT22;7101;51.600;7.310;2023-11-18T09:52:26;5.80;99.90
14053;DHT22;7101;51.600;7.310;2023-11-18T09:55:02;5.80;99.90
14053;DHT22;7101;51.600;7.310;2023-11-18T09:57:32;5.80;99.90
14053;DHT22;7101;51.600;7.310;2023-11-18T10:00:04;5.80;99.90
14053;DHT22;7101;51.600;7.310;2023-11-18T10:02:48;5.90;99.90
14053;DHT22;7101;51.600;7.310;2023-11-18T10:05:16;5.90;99.90
14053;DHT22;7101;51.600;7.310;2023-11-18T10:07:46;6.00;99.90
14053;DHT22;7101;51.600;7.310;2023-11-18T10:10:15;6.10;99.90
14053;DHT22;7101;51.600;7.310;2023-11-18T10:12:43;6.10;99.90
14053;DHT22;7101;51.600;7.310;2023-11-18T10:15:14;6.10;99.90
14053;DHT22;7101;51.600;7.310;2023-11-18T10:17:44;6.20;99.90
14053;DHT22;7101;51.600;7.310;2023-11-18T10:20:21;6.20;99.90
14053;DHT22;7101;51.600;7.310;2023-11-18T10:23:05;6.30;99.90
14053;DHT22;7101;51.600;7.310;2023-11-18T10:25:35;6.20;99.90
14053;DHT22;7101;51.600;7.310;2023-11-18T10:28:06;6.20;99.90
14053;DHT22;7101;51.600;7.310;2023-11-18T10:30:44;6.30;99.90
14053;DHT22;7101;51.600;7.310;2023-11-18T10:33:14;6.40;99.90
14053;DHT22;7101;51.600;7.310;2023-11-18T10:35:49;6.40;99.90
14053;DHT22;7101;51.600;7.310;2023-11-18T10:38:18;6.60;99.90
14053;DHT22;7101;51.600;7.310;2023-11-18T10:40:47;6.60;99.90
14053;DHT22;7101;51.600;7.310;2023-11-18T10:43:14;6.60;99.90
14053;DHT22;7101;51.600;7.310;2023-11-18T10:45:44;6.60;99.90
14053;DHT22;7101;51.600;7.310;2023-11-18T10:48:12;6.70;99.90
14053;DHT22;7101;51.600;7.310;2023-11-18T10:50:42;6.70;99.90
14053;DHT22;7101;51.600;7.310;2023-11-18T10:53:12;6.80;99.90
14053;DHT22;7101;51.600;7.310;2023-11-18T10:55:41;6.90;99.90
14053;DHT22;7101;51.600;7.310;2023-11-18T10:58:08;6.80;99.90
14053;DHT22;7101;51.600;7.310;2023-11-18T11:00:49;6.90;99.90
14053;DHT22;7101;51.600;7.310;2023-11-18T11:03:19;6.90;99.90
14053;DHT22;7101;51.600;7.310;2023-11-18T11:05:49;6.90;99.90
14053;DHT22;7101;51.600;7.310;2023-11-18T11:08:16;6.90;99.90
14053;DHT22;7101;51.600;7.310;2023-11-18T11:10:44;6.80;99.90
14053;DHT22;7101;51.600;7.310;2023-11-18T11:13:11;6.90;99.90
14053;DHT22;7101;51.600;7.310;2023-11-18T11:15:42;7.00;99.90
14053;DHT22;7101;51.600;7.310;2023-11-18T11:18:20;6.90;99.90
14053;DHT22;7101;51.600;7.310;2023-11-18T11:20:57;7.00;99.90
14053;DHT22;7101;51.600;7.310;2023-11-18T11:23:35;7.00;99.90
14053;DHT22;7101;51.600;7.310;2023-11-18T11:26:19;7.00;99.90
14053;DHT22;7101;51.600;7.310;2023-11-18T11:29:01;7.00;99.90
14053;DHT22;7101;51.600;7.310;2023-11-18T11:31:32;7.10;99.90
14053;DHT22;7101;51.600;7.310;2023-11-18T11:34:05;7.20;99.90
14053;DHT22;7101;51.600;7.310;2023-11-18T11:36:36;7.20;99.90
14053;DHT22;7101;51.600;7.310;2023-11-18T11:39:08;7.30;99.90
14053;DHT22;7101;51.600;7.310;2023-11-18T11:41:44;7.30;99.90
14053;DHT22;7101;51.600;7.310;2023-11-18T11:44:13;7.40;99.90
14053;DHT22;7101;51.600;7.310;2023-11-18T11:46:40;7.40;99.90
14053;DHT22;7101;51.600;7.310;2023-11-18T11:49:11;7.40;99.90
14053;DHT22;7101;51.600;7.310;2023-11-18T11:51:46;7.40;99.90
14053;DHT22;7101;51.600;7.310;2023-11-18T11:54:20;7.50;99.90
14053;DHT22;7101;51.600;7.310;2023-11-18T11:56:48;7.50;99.90
14053;DHT22;7101;51.600;7.310;2023-11-18T11:59:34;7.40;99.90
14053;DHT22;7101;51.600;7.310;2023-11-18T12:02:04;7.40;99.90
14053;DHT22;7101;51.600;7.310;2023-11-18T12:04:36;7.40;99.90
14053;DHT22;7101;51.600;7.310;2023-11-18T12:07:05;7.30;99.90
14053;DHT22;7101;51.600;7.310;2023-11-18T12:09:35;7.40;99.90
14053;DHT22;7101;51.600;7.310;2023-11-18T12:12:04;7.40;99.90
14053;DHT22;7101;51.600;7.310;2023-11-18T12:14:49;7.40;99.90
14053;DHT22;7101;51.600;7.310;2023-11-18T12:17:18;7.40;99.90
14053;DHT22;7101;51.600;7.310;2023-11-18T12:19:49;7.50;99.90
14053;DHT22;7101;51.600;7.310;2023-11-18T12:22:24;7.50;99.90
14053;DHT22;7101;51.600;7.310;2023-11-18T12:25:28;7.50;99.90
14053;DHT22;7101;51.600;7.310;2023-11-18T12:27:58;7.40;99.90
14053;DHT22;7101;51.600;7.310;2023-11-18T12:30:41;7.50;99.90
14053;DHT22;7101;51.600;7.310;2023-11-18T12:33:19;7.50;99.90
14053;DHT22;7101;51.600;7.310;2023-11-18T12:42:07;7.40;99.90
14053;DHT22;7101;51.600;7.310;2023-11-18T12:44:57;7.30;99.90
14053;DHT22;7101;51.600;7.310;2023-11-18T12:47:33;7.20;99.90
14053;DHT22;7101;51.600;7.310;2023-11-18T12:50:00;7.20;99.90
14053;DHT22;7101;51.600;7.310;2023-11-18T12:52:27;7.20;99.90
14053;DHT22;7101;51.600;7.310;2023-11-18T12:54:54;7.20;99.90
14053;DHT22;7101;51.600;7.310;2023-11-18T12:57:27;7.20;99.90
14053;DHT22;7101;51.600;7.310;2023-11-18T12:59:58;7.20;99.90
14053;DHT22;7101;51.600;7.310;2023-11-18T13:02:26;7.20;99.90
14053;DHT22;7101;51.600;7.310;2023-11-18T13:04:52;7.10;99.90
14053;DHT22;7101;51.600;7.310;2023-11-18T13:07:20;7.10;99.90
14053;DHT22;7101;51.600;7.310;2023-11-18T13:09:47;7.10;99.90
14053;DHT22;7101;51.600;7.310;2023-11-18T13:12:15;7.10;99.90
14053;DHT22;7101;51.600;7.310;2023-11-18T13:14:46;7.10;99.90
14053;DHT22;7101;51.600;7.310;2023-11-18T13:17:15;7.00;99.90
14053;DHT22;7101;51.600;7.310;2023-11-18T13:19:43;7.00;99.90
14053;DHT22;7101;51.600;7.310;2023-11-18T13:22:11;7.00;99.90
14053;DHT22;7101;51.600;7.310;2023-11-18T13:24:40;7.00;99.90
14053;DHT22;7101;51.600;7.310;2023-11-18T13:27:10;7.00;99.90
14053;DHT22;7101;51.600;7.310;2023-11-18T13:29:38;6.90;99.90
14053;DHT22;7101;51.600;7.310;2023-11-18T13:32:10;6.90;99.90
14053;DHT22;7101;51.600;7.310;2023-11-18T13:34:37;7.00;99.90
14053;DHT22;7101;51.600;7.310;2023-11-18T13:37:09;7.00;99.90
14053;DHT22;7101;51.600;7.310;2023-11-18T13:39:38;7.00;99.90
14053;DHT22;7101;51.600;7.310;2023-11-18T13:42:20;7.00;99.90
14053;DHT22;7101;51.600;7.310;2023-11-18T13:44:47;7.00;99.90
14053;DHT22;7101;51.600;7.310;2023-11-18T13:47:18;7.00;99.90
14053;DHT22;7101;51.600;7.310;2023-11-18T13:49:45;7.10;99.90
14053;DHT22;7101;51.600;7.310;2023-11-18T13:52:16;7.00;99.90
14053;DHT22;7101;51.600;7.310;2023-11-18T13:54:44;7.00;99.90
14053;DHT22;7101;51.600;7.310;2023-11-18T13:57:13;7.00;99.90
14053;DHT22;7101;51.600;7.310;2023-11-18T13:59:40;7.00;99.90
14053;DHT22;7101;51.600;7.310;2023-11-18T14:02:10;7.00;99.90
14053;DHT22;7101;51.600;7.310;2023-11-18T14:04:39;7.00;99.90
14053;DHT22;7101;51.600;7.310;2023-11-18T14:07:08;7.00;99.90
14053;DHT22;7101;51.600;7.310;2023-11-18T14:09:37;7.00;99.90
14053;DHT22;7101;51.600;7.310;2023-11-18T14:12:06;7.00;99.90
14053;DHT22;7101;51.600;7.310;2023-11-18T14:14:34;6.90;99.90
14053;DHT22;7101;51.600;7.310;2023-11-18T14:17:01;6.90;99.90
14053;DHT22;7101;51.600;7.310;2023-11-18T14:19:28;7.00;99.90
14053;DHT22;7101;51.600;7.310;2023-11-18T14:21:57;6.90;99.90
14053;DHT22;7101;51.600;7.310;2023-11-18T14:24:24;6.90;99.90
14053;DHT22;7101;51.600;7.310;2023-11-18T14:26:53;7.00;99.90
14053;DHT22;7101;51.600;7.310;2023-11-18T14:29:20;6.90;99.90
14053;DHT22;7101;51.600;7.310;2023-11-18T14:31:48;7.00;99.90
14053;DHT22;7101;51.600;7.310;2023-11-18T14:34:15;6.90;99.90
14053;DHT22;7101;51.600;7.310;2023-11-18T14:36:43;7.00;99.90
14053;DHT22;7101;51.600;7.310;2023-11-18T14:39:12;7.00;99.90
14053;DHT22;7101;51.600;7.310;2023-11-18T14:41:41;7.00;99.90
14053;DHT22;7101;51.600;7.310;2023-11-18T14:44:09;7.00;99.90
14053;DHT22;7101;51.600;7.310;2023-11-18T14:46:37;6.90;99.90
14053;DHT22;7101;51.600;7.310;2023-11-18T14:49:06;7.00;99.90
14053;DHT22;7101;51.600;7.310;2023-11-18T14:51:35;7.00;99.90
14053;DHT22;7101;51.600;7.310;2023-11-18T14:54:02;7.00;99.90
14053;DHT22;7101;51.600;7.310;2023-11-18T14:56:32;7.00;99.90
14053;DHT22;7101;51.600;7.310;2023-11-18T14:59:00;7.00;99.90
14053;DHT22;7101;51.600;7.310;2023-11-18T15:01:27;6.90;99.90
14053;DHT22;7101;51.600;7.310;2023-11-18T15:03:55;6.90;99.90
14053;DHT22;7101;51.600;7.310;2023-11-18T15:06:25;6.90;99.90
14053;DHT22;7101;51.600;7.310;2023-11-18T15:08:53;6.90;99.90
14053;DHT22;7101;51.600;7.310;2023-11-18T15:11:23;6.90;99.90
14053;DHT22;7101;51.600;7.310;2023-11-18T15:13:52;6.90;99.90
14053;DHT22;7101;51.600;7.310;2023-11-18T15:16:19;6.90;99.90
14053;DHT22;7101;51.600;7.310;2023-11-18T15:18:46;6.90;99.90
14053;DHT22;7101;51.600;7.310;2023-11-18T15:21:13;6.90;99.90
14053;DHT22;7101;51.600;7.310;2023-11-18T15:23:41;6.80;99.90
14053;DHT22;7101;51.600;7.310;2023-11-18T15:26:08;6.80;99.90
14053;DHT22;7101;51.600;7.310;2023-11-18T15:28:35;6.80;99.90
14053;DHT22;7101;51.600;7.310;2023-11-18T15:31:03;6.80;99.90
14053;DHT22;7101;51.600;7.310;2023-11-18T15:33:30;6.80;99.90
14053;DHT22;7101;51.600;7.310;2023-11-18T15:35:57;6.90;99.90
14053;DHT22;7101;51.600;7.310;2023-11-18T15:38:24;6.90;99.90
14053;DHT22;7101;51.600;7.310;2023-11-18T15:40:51;7.00;99.90
14053;DHT22;7101;51.600;7.310;2023-11-18T15:43:18;6.90;99.90
14053;DHT22;7101;51.600;7.310;2023-11-18T15:45:45;7.00;99.90
14053;DHT22;7101;51.600;7.310;2023-11-18T15:48:14;7.00;99.90
14053;DHT22;7101;51.600;7.310;2023-11-18T15:50:40;6.90;99.90
14053;DHT22;7101;51.600;7.310;2023-11-18T15:53:07;6.90;99.90
14053;DHT22;7101;51.600;7.310;2023-11-18T15:55:39;6.90;99.90
14053;DHT22;7101;51.600;7.310;2023-11-18T15:58:07;7.00;99.90
14053;DHT22;7101;51.600;7.310;2023-11-18T16:00:35;7.00;99.90
14053;DHT22;7101;51.600;7.310;2023-11-18T16:03:03;7.00;99.90
14053;DHT22;7101;51.600;7.310;2023-11-18T16:05:37;7.00;99.90
14053;DHT22;7101;51.600;7.310;2023-11-18T16:08:05;7.00;99.90
14053;DHT22;7101;51.600;7.310;2023-11-18T16:10:33;7.00;99.90
14053;DHT22;7101;51.600;7.310;2023-11-18T16:13:01;7.00;99.90
14053;DHT22;7101;51.600;7.310;2023-11-18T16:15:28;7.00;99.90
14053;DHT22;7101;51.600;7.310;2023-11-18T16:17:57;7.00;99.90
14053;DHT22;7101;51.600;7.310;2023-11-18T16:20:25;7.00;99.90